Great Navigator — VRBW8 — position and weather

sailwx.info

Track history (hours):
 
Tides and Currents Weather Stations Pressure Air Temp Water Temp Dewpoint Dewpoint Depression Visibility Wind Speed Wind Dir Waves Ship Positions

Great Navigator

Last reported at 2018-Jun-27 04:55 UTC. Time now 2018-Jul-19 07:47 UTC.
Position S 34°06' E 017°48'.
Warning: this ship's position is 22 days out of date.

Length 289 m; draft 10.7 m.

Type: Cargo ship. MMSI: 477158100.

Date/timePositionNaut miles runAvg speedWind from/ knotsBaromVisibWave heightAir tempDewpointWater temp
2018-Jun-27 04:55S 34°06' E 017°48'512.8
2018-Jun-27 04:31S 34°09' E 017°53'612.4
2018-Jun-27 04:00S 34°13' E 017°59'612.4
2018-Jun-27 03:30S 34°17' E 018°05'612.2
2018-Jun-27 03:01S 34°20' E 018°11'611.9
2018-Jun-27 02:30S 34°23' E 018°17'611.5
2018-Jun-27 02:00S 34°27' E 018°23'611.4
2018-Jun-27 01:31S 34°29' E 018°29'611.5
2018-Jun-27 01:00S 34°32' E 018°35'611.4
2018-Jun-27 00:30S 34°35' E 018°42'611.4
2018-Jun-27 00:01S 34°37' E 018°48'611.3
2018-Jun-26 23:30S 34°39' E 018°54'610.9
2018-Jun-26 22:58S 34°41' E 019°01'  
2018-Jun-24 02:34S 31°57' E 033°09'211.9
2018-Jun-24 02:26S 31°56' E 033°10'511.4
2018-Jun-24 02:00S 31°54' E 033°16'611.4
2018-Jun-24 01:30S 31°51' E 033°22'  
Track history (hours):
 
Tides and Currents Weather Stations Pressure Air Temp Water Temp Dewpoint Dewpoint Depression Visibility Wind Speed Wind Dir Waves Ship Positions

Great Navigator

Last reported at 2018-Jun-27 04:55 UTC. Time now 2018-Jul-19 07:47 UTC.
Position S 34°06' E 017°48'.
Warning: this ship's position is 22 days out of date.

Length 289 m; draft 10.7 m.

Type: Cargo ship. MMSI: 477158100.

Date/timePositionNaut miles runAvg speedWind from/ knotsBaromVisibWave heightAir tempDewpointWater temp
2018-Jun-27 04:55S 34°06' E 017°48'512.8
2018-Jun-27 04:31S 34°09' E 017°53'612.4
2018-Jun-27 04:00S 34°13' E 017°59'612.4
2018-Jun-27 03:30S 34°17' E 018°05'612.2
2018-Jun-27 03:01S 34°20' E 018°11'611.9
2018-Jun-27 02:30S 34°23' E 018°17'611.5
2018-Jun-27 02:00S 34°27' E 018°23'611.4
2018-Jun-27 01:31S 34°29' E 018°29'611.5
2018-Jun-27 01:00S 34°32' E 018°35'611.4
2018-Jun-27 00:30S 34°35' E 018°42'611.4
2018-Jun-27 00:01S 34°37' E 018°48'611.3
2018-Jun-26 23:30S 34°39' E 018°54'610.9
2018-Jun-26 22:58S 34°41' E 019°01'  
2018-Jun-24 02:34S 31°57' E 033°09'211.9
2018-Jun-24 02:26S 31°56' E 033°10'511.4
2018-Jun-24 02:00S 31°54' E 033°16'611.4
2018-Jun-24 01:30S 31°51' E 033°22'  

Dump ship's entire track history